createdAt,value
2018-07-04T00:00:55.997Z,41.87
2018-07-04T00:03:34.552Z,41.97
2018-07-04T00:06:13.410Z,41.63
2018-07-04T00:08:52.048Z,41.57
2018-07-04T00:11:30.713Z,42.31
2018-07-04T00:14:09.397Z,42.09
2018-07-04T00:19:37.926Z,42.29
2018-07-04T00:25:07.400Z,41.59
2018-07-04T00:27:46.140Z,42.39
2018-07-04T00:30:24.929Z,43.31
2018-07-04T00:33:03.666Z,43.15
2018-07-04T00:35:42.534Z,42.64
2018-07-04T00:38:21.314Z,42.49
2018-07-04T00:41:00.150Z,42.26
2018-07-04T00:43:40.561Z,43.13
2018-07-04T00:46:19.227Z,42.70
2018-07-04T00:48:57.911Z,43.88
2018-07-04T00:51:36.919Z,44.46
2018-07-04T00:54:15.431Z,44.88
2018-07-04T00:56:54.090Z,44.93
2018-07-04T00:59:32.823Z,45.75
2018-07-04T01:02:13.118Z,45.91
2018-07-04T01:04:52.518Z,44.91
2018-07-04T01:07:31.444Z,44.08
2018-07-04T01:10:10.102Z,43.45
2018-07-04T01:12:49.778Z,43.27
2018-07-04T01:15:28.593Z,43.11
2018-07-04T01:18:07.137Z,43.00
2018-07-04T01:20:51.677Z,43.30
2018-07-04T01:23:30.315Z,44.93
2018-07-04T01:26:09.080Z,45.16
2018-07-04T01:28:47.656Z,45.58
2018-07-04T01:31:26.239Z,45.33
2018-07-04T01:34:05.866Z,44.92
2018-07-04T01:36:44.667Z,44.98
2018-07-04T01:39:23.490Z,44.82
2018-07-04T01:42:02.760Z,44.47
2018-07-04T01:44:41.625Z,43.94
2018-07-04T01:47:20.433Z,43.10
2018-07-04T01:49:59.095Z,43.10
2018-07-04T01:52:37.850Z,43.22
2018-07-04T01:55:16.418Z,43.74
2018-07-04T01:57:55.883Z,43.42
2018-07-04T02:00:34.636Z,43.45
2018-07-04T02:03:13.275Z,44.47
2018-07-04T02:05:51.857Z,44.84
2018-07-04T02:08:30.694Z,44.82
2018-07-04T02:11:10.649Z,45.10
2018-07-04T02:13:49.577Z,45.24
2018-07-04T02:16:28.301Z,44.28
2018-07-04T02:19:07.215Z,44.09
2018-07-04T02:21:45.872Z,44.09
2018-07-04T02:24:24.976Z,43.88
2018-07-04T02:27:03.675Z,43.46
2018-07-04T02:29:42.394Z,44.23
2018-07-04T02:32:21.575Z,45.23
2018-07-04T02:35:00.878Z,45.46
2018-07-04T02:37:40.987Z,46.11
2018-07-04T02:40:19.837Z,45.88
2018-07-04T02:42:59.024Z,46.31
2018-07-04T02:45:37.822Z,46.50
2018-07-04T02:48:16.826Z,47.39
2018-07-04T02:50:55.816Z,47.00
2018-07-04T02:53:34.379Z,48.01
2018-07-04T02:56:13.199Z,48.56
2018-07-04T02:58:57.446Z,48.86
2018-07-04T03:01:41.961Z,49.03
2018-07-04T03:04:20.777Z,48.64
2018-07-04T03:06:59.478Z,48.84
2018-07-04T03:09:38.280Z,49.10
2018-07-04T03:12:16.991Z,48.68
2018-07-04T03:14:55.731Z,49.72
2018-07-04T03:17:34.686Z,50.22
2018-07-04T03:20:14.211Z,51.23
2018-07-04T03:22:53.419Z,51.19
2018-07-04T03:25:32.372Z,50.70
2018-07-04T03:28:11.149Z,51.08
2018-07-04T03:30:49.838Z,52.20
2018-07-04T03:33:28.706Z,52.59
2018-07-04T03:36:07.410Z,53.32
2018-07-04T03:38:46.070Z,54.04
2018-07-04T03:41:24.770Z,53.59
2018-07-04T03:44:03.669Z,52.64
2018-07-04T03:46:42.510Z,51.99
2018-07-04T03:49:21.228Z,51.63
2018-07-04T03:51:59.835Z,50.60
2018-07-04T03:54:38.597Z,49.68
2018-07-04T03:57:17.447Z,50.97
2018-07-04T03:59:56.490Z,50.50
2018-07-04T04:02:35.622Z,50.59
2018-07-04T04:05:14.527Z,51.55
2018-07-04T04:07:53.406Z,52.21
2018-07-04T04:10:36.317Z,52.33
2018-07-04T04:13:16.764Z,52.68
2018-07-04T04:15:57.240Z,52.61
2018-07-04T04:18:37.070Z,52.74
2018-07-04T04:21:16.629Z,52.17
2018-07-04T04:23:56.081Z,51.58
2018-07-04T04:26:37.751Z,52.12
2018-07-04T04:29:18.713Z,51.88
2018-07-04T04:31:58.007Z,52.03
2018-07-04T04:34:37.281Z,51.14
2018-07-04T04:37:17.141Z,51.59
2018-07-04T04:39:56.253Z,51.96
2018-07-04T04:42:35.365Z,51.28
2018-07-04T04:45:14.921Z,51.21
2018-07-04T04:47:53.695Z,51.74
2018-07-04T04:50:32.648Z,51.70
2018-07-04T04:53:11.908Z,50.94
2018-07-04T04:58:47.056Z,50.54
2018-07-04T05:01:25.758Z,49.87
2018-07-04T05:04:04.683Z,48.88
2018-07-04T05:06:43.571Z,48.20
2018-07-04T05:09:22.465Z,46.67
2018-07-04T05:12:01.431Z,44.01
2018-07-04T05:14:40.131Z,41.88
2018-07-04T05:17:18.692Z,39.61
2018-07-04T05:19:57.507Z,38.71
2018-07-04T05:22:36.289Z,39.04
2018-07-04T05:25:15.840Z,38.54
2018-07-04T05:27:54.778Z,37.91
2018-07-04T05:30:33.511Z,36.03
2018-07-04T05:33:12.109Z,34.25
2018-07-04T05:35:51.053Z,33.12
2018-07-04T05:38:29.690Z,32.38
2018-07-04T05:41:09.007Z,30.96
2018-07-04T05:43:47.997Z,31.72
2018-07-04T05:46:26.376Z,31.34
2018-07-04T05:49:07.548Z,30.90
2018-07-04T05:51:47.124Z,30.45
2018-07-04T05:54:25.780Z,29.98
2018-07-04T05:57:04.476Z,29.76
2018-07-04T05:59:43.135Z,30.94
2018-07-04T06:02:21.928Z,29.56
2018-07-04T06:05:00.583Z,28.92
2018-07-04T06:07:39.351Z,29.10
2018-07-04T06:10:18.327Z,28.46
2018-07-04T06:12:57.176Z,27.28
2018-07-04T06:15:36.096Z,26.34
2018-07-04T06:18:14.825Z,25.78
2018-07-04T06:20:53.555Z,25.33
2018-07-04T06:23:32.301Z,25.19
2018-07-04T06:26:10.950Z,25.21
2018-07-04T06:28:49.984Z,24.19
2018-07-04T06:31:28.785Z,23.30
2018-07-04T06:34:07.308Z,24.18
2018-07-04T06:36:46.018Z,23.54
2018-07-04T06:39:13.223Z,23.36
2018-07-04T06:41:39.512Z,22.28
2018-07-04T06:44:05.871Z,22.30
2018-07-04T06:46:32.194Z,21.75
2018-07-04T06:48:59.246Z,22.36
2018-07-04T06:51:25.580Z,21.87
2018-07-04T06:53:51.928Z,22.39
2018-07-04T06:56:18.277Z,21.63
2018-07-04T06:58:44.579Z,21.52
2018-07-04T07:01:11.541Z,20.91
2018-07-04T07:03:50.456Z,20.67
2018-07-04T07:06:29.140Z,20.32
2018-07-04T07:09:07.976Z,19.92
2018-07-04T07:11:46.766Z,20.24
2018-07-04T07:14:25.592Z,19.21
2018-07-04T07:17:04.344Z,19.99
2018-07-04T07:19:43.295Z,18.49
2018-07-04T07:22:21.979Z,18.74
2018-07-04T07:25:00.772Z,17.82
2018-07-04T07:27:39.702Z,17.83
2018-07-04T07:30:18.573Z,16.02
2018-07-04T07:32:57.339Z,16.59
2018-07-04T07:35:36.803Z,15.70
2018-07-04T07:38:16.100Z,15.54
2018-07-04T07:40:54.912Z,15.63
2018-07-04T07:43:33.644Z,15.49
2018-07-04T07:46:12.507Z,16.40
2018-07-04T07:48:51.211Z,15.84
2018-07-04T07:51:29.925Z,15.71
2018-07-04T07:54:08.756Z,14.80
2018-07-04T07:56:47.484Z,16.03
2018-07-04T07:59:26.704Z,16.49
2018-07-04T08:02:05.330Z,15.91
2018-07-04T08:04:44.088Z,16.55
2018-07-04T08:07:22.826Z,16.23
2018-07-04T08:10:01.721Z,16.63
2018-07-04T08:12:40.375Z,16.42
2018-07-04T08:15:19.324Z,16.37
2018-07-04T08:17:58.186Z,16.21
2018-07-04T08:20:36.980Z,16.96
2018-07-04T08:23:16.092Z,15.71
2018-07-04T08:25:55.199Z,14.78
2018-07-04T08:28:34.639Z,14.26
2018-07-04T08:31:13.375Z,15.28
2018-07-04T08:33:52.057Z,14.27
2018-07-04T08:36:30.647Z,13.90
2018-07-04T08:39:09.487Z,13.38
2018-07-04T08:41:48.234Z,14.48
2018-07-04T08:44:27.859Z,14.71
2018-07-04T08:47:06.633Z,14.29
2018-07-04T08:49:45.551Z,13.11
2018-07-04T08:52:24.435Z,13.08
2018-07-04T08:55:03.170Z,12.63
2018-07-04T08:57:41.958Z,12.71
2018-07-04T09:00:20.734Z,13.06
2018-07-04T09:02:59.447Z,12.74
2018-07-04T09:05:38.984Z,12.96
2018-07-04T09:08:17.845Z,12.31
2018-07-04T09:10:56.678Z,11.81
2018-07-04T09:13:35.732Z,12.53
2018-07-04T09:16:14.537Z,12.35
2018-07-04T09:18:53.373Z,11.87
2018-07-04T09:21:32.291Z,11.63
2018-07-04T09:24:11.135Z,12.25
2018-07-04T09:26:49.788Z,11.18
2018-07-04T09:29:28.602Z,11.80
2018-07-04T09:32:07.567Z,10.96
2018-07-04T09:34:46.764Z,10.75
2018-07-04T09:37:25.575Z,11.45
2018-07-04T09:40:04.299Z,11.15
2018-07-04T09:42:43.196Z,11.33
2018-07-04T09:45:21.941Z,10.80
2018-07-04T09:48:00.624Z,11.03
2018-07-04T09:50:39.502Z,10.35
2018-07-04T09:53:18.367Z,10.22
2018-07-04T09:55:57.059Z,10.16
2018-07-04T09:58:35.795Z,10.18
2018-07-04T10:01:20.275Z,10.37
2018-07-04T10:03:59.366Z,10.82
2018-07-04T10:06:38.817Z,11.11
2018-07-04T10:09:17.486Z,11.57
2018-07-04T10:11:56.068Z,11.78
2018-07-04T10:14:34.924Z,11.67
2018-07-04T10:17:13.645Z,10.85
2018-07-04T10:19:52.576Z,11.83
2018-07-04T10:22:31.299Z,11.37
2018-07-04T10:25:10.151Z,11.28
2018-07-04T10:27:49.013Z,11.88
2018-07-04T10:30:28.731Z,12.50
2018-07-04T10:33:07.514Z,12.65
2018-07-04T10:35:46.158Z,13.01
2018-07-04T10:38:25.168Z,12.97
2018-07-04T10:41:04.064Z,13.08
2018-07-04T10:43:42.660Z,11.76
2018-07-04T10:46:21.460Z,12.48
2018-07-04T10:49:00.299Z,12.15
2018-07-04T10:51:39.272Z,13.05
2018-07-04T10:54:18.250Z,12.89
2018-07-04T10:56:56.909Z,12.97
2018-07-04T10:59:35.684Z,13.41
2018-07-04T11:02:14.474Z,12.99
2018-07-04T11:04:55.217Z,13.50
2018-07-04T11:07:33.873Z,14.01
2018-07-04T11:10:12.672Z,13.61
2018-07-04T11:12:51.371Z,13.34
2018-07-04T11:15:30.193Z,13.65
2018-07-04T11:18:09.105Z,13.43
2018-07-04T11:20:47.871Z,14.68
2018-07-04T11:23:26.663Z,15.23
2018-07-04T11:26:05.645Z,15.12
2018-07-04T11:28:44.428Z,14.57
2018-07-04T11:31:23.221Z,14.97
2018-07-04T11:34:01.991Z,14.31
2018-07-04T11:36:40.642Z,12.96
2018-07-04T11:39:19.410Z,12.17
2018-07-04T11:41:59.156Z,12.15
2018-07-04T11:44:38.044Z,12.32
2018-07-04T11:47:04.551Z,12.42
2018-07-04T11:49:30.975Z,11.79
2018-07-04T11:51:57.316Z,12.18
2018-07-04T11:54:23.680Z,11.79
2018-07-04T11:56:50.016Z,11.59
2018-07-04T11:59:16.482Z,11.19
2018-07-04T12:01:43.338Z,10.79
2018-07-04T12:04:22.151Z,11.99
2018-07-04T12:07:01.746Z,11.34
2018-07-04T12:09:28.299Z,12.11
2018-07-04T12:11:54.692Z,12.25
2018-07-04T12:14:21.162Z,12.04
2018-07-04T12:16:47.510Z,12.81
2018-07-04T12:19:14.079Z,12.72
2018-07-04T12:21:40.455Z,13.45
2018-07-04T12:24:07.005Z,13.33
2018-07-04T12:26:33.386Z,14.10
2018-07-04T12:28:59.841Z,13.55
2018-07-04T12:31:26.199Z,13.84
2018-07-04T12:33:52.530Z,14.23
2018-07-04T12:36:18.903Z,13.64
2018-07-04T12:38:45.232Z,13.34
2018-07-04T12:41:11.594Z,13.89
2018-07-04T12:43:38.098Z,13.69
2018-07-04T12:46:04.593Z,13.49
2018-07-04T12:48:31.017Z,13.57
2018-07-04T12:50:57.528Z,13.67
2018-07-04T12:53:23.925Z,13.91
2018-07-04T12:56:02.640Z,14.13
2018-07-04T12:58:41.327Z,13.76
2018-07-04T13:01:20.400Z,14.21
2018-07-04T13:03:59.020Z,14.03
2018-07-04T13:06:37.918Z,13.78
2018-07-04T13:09:22.174Z,14.20
2018-07-04T13:12:01.098Z,15.05
2018-07-04T13:14:39.751Z,14.32
2018-07-04T13:17:18.424Z,14.01
2018-07-04T13:19:57.290Z,15.73
2018-07-04T13:22:36.292Z,16.31
2018-07-04T13:25:15.636Z,16.78
2018-07-04T13:27:57.430Z,16.43
2018-07-04T13:30:36.927Z,16.34
2018-07-04T13:33:15.925Z,16.11
2018-07-04T13:38:47.112Z,16.45
2018-07-04T13:41:29.196Z,16.04
2018-07-04T13:44:11.111Z,16.17
2018-07-04T13:46:49.888Z,16.30
2018-07-04T13:49:28.590Z,16.55
2018-07-04T13:52:07.342Z,15.98
2018-07-04T13:54:46.242Z,16.23
2018-07-04T13:57:25.051Z,16.62
2018-07-04T14:00:04.343Z,15.66
2018-07-04T14:02:43.073Z,15.90
2018-07-04T14:05:21.573Z,15.80
2018-07-04T14:08:00.429Z,15.74
2018-07-04T14:10:39.513Z,15.82
2018-07-04T14:13:19.527Z,15.66
2018-07-04T14:15:58.202Z,15.83
2018-07-04T14:18:36.919Z,15.91
2018-07-04T14:21:15.982Z,15.71
2018-07-04T14:23:54.878Z,15.65
2018-07-04T14:26:33.525Z,16.58
2018-07-04T14:29:12.302Z,16.38
2018-07-04T14:31:51.006Z,17.53
2018-07-04T14:34:29.814Z,18.20
2018-07-04T14:37:08.662Z,18.47
2018-07-04T14:39:47.397Z,18.87
2018-07-04T14:42:25.941Z,19.47
2018-07-04T14:45:04.822Z,19.42
2018-07-04T14:47:43.683Z,20.18
2018-07-04T14:50:22.408Z,20.11
2018-07-04T14:53:01.373Z,20.51
2018-07-04T14:55:40.079Z,20.62
2018-07-04T14:58:18.991Z,20.37
2018-07-04T15:00:57.818Z,20.87
2018-07-04T15:03:36.647Z,20.76
2018-07-04T15:06:15.497Z,20.04
2018-07-04T15:08:54.260Z,20.41
2018-07-04T15:11:33.274Z,20.62
2018-07-04T15:14:12.531Z,20.76
2018-07-04T15:16:51.369Z,20.66
2018-07-04T15:19:30.126Z,21.01
2018-07-04T15:22:08.821Z,21.21
2018-07-04T15:24:47.894Z,21.47
2018-07-04T15:27:26.882Z,21.46
2018-07-04T15:30:06.643Z,21.04
2018-07-04T15:32:45.340Z,21.16
2018-07-04T15:35:24.185Z,21.43
2018-07-04T15:38:02.948Z,22.10
2018-07-04T15:40:42.274Z,22.26
2018-07-04T15:43:21.131Z,22.84
2018-07-04T15:46:00.057Z,22.39
2018-07-04T15:48:38.760Z,22.28
2018-07-04T15:51:17.657Z,22.39
2018-07-04T15:53:56.659Z,21.73
2018-07-04T15:56:35.274Z,22.30
2018-07-04T15:59:14.090Z,22.18
2018-07-04T16:01:52.838Z,22.04
2018-07-04T16:04:32.321Z,22.09
2018-07-04T16:07:10.997Z,21.91
2018-07-04T16:09:49.815Z,22.04
2018-07-04T16:12:28.584Z,22.12
2018-07-04T16:15:07.390Z,21.86
2018-07-04T16:17:46.781Z,22.14
2018-07-04T16:20:25.584Z,22.15
2018-07-04T16:23:04.490Z,22.18
2018-07-04T16:25:43.246Z,22.31
2018-07-04T16:28:22.104Z,22.37
2018-07-04T16:31:01.307Z,22.43
2018-07-04T16:33:40.594Z,22.44
2018-07-04T16:36:19.375Z,22.42
2018-07-04T16:38:58.320Z,22.49
2018-07-04T16:41:37.711Z,22.75
2018-07-04T16:44:16.629Z,23.10
2018-07-04T16:46:55.487Z,23.34
2018-07-04T16:49:34.616Z,23.53
2018-07-04T16:52:14.073Z,23.53
2018-07-04T16:54:52.794Z,23.16
2018-07-04T16:57:31.596Z,23.10
2018-07-04T17:00:10.641Z,23.77
2018-07-04T17:02:51.636Z,23.92
2018-07-04T17:05:30.283Z,23.42
2018-07-04T17:08:09.120Z,24.01
2018-07-04T17:10:47.842Z,24.14
2018-07-04T17:13:26.622Z,24.31
2018-07-04T17:16:05.455Z,24.78
2018-07-04T17:18:44.166Z,24.44
2018-07-04T17:21:23.052Z,24.53
2018-07-04T17:24:01.753Z,24.18
2018-07-04T17:26:40.573Z,24.25
2018-07-04T17:29:19.328Z,24.91
2018-07-04T17:31:58.115Z,24.65
2018-07-04T17:34:36.757Z,24.81
2018-07-04T17:37:15.454Z,24.94
2018-07-04T17:39:54.045Z,25.01
2018-07-04T17:42:32.898Z,26.02
2018-07-04T17:45:11.609Z,25.49
2018-07-04T17:47:50.340Z,25.01
2018-07-04T17:50:29.218Z,25.28
2018-07-04T17:53:08.069Z,24.96
2018-07-04T17:55:46.798Z,25.44
2018-07-04T17:58:25.470Z,25.15
2018-07-04T18:01:04.133Z,25.39
2018-07-04T18:03:42.751Z,25.59
2018-07-04T18:06:22.170Z,26.09
2018-07-04T18:09:06.212Z,25.82
2018-07-04T18:11:54.998Z,25.97
2018-07-04T18:14:38.730Z,25.93
2018-07-04T18:17:21.859Z,26.41
2018-07-04T18:20:03.936Z,28.43
2018-07-04T18:22:43.434Z,29.39
2018-07-04T18:25:22.304Z,30.21
2018-07-04T18:28:01.340Z,30.21
2018-07-04T18:30:40.736Z,30.41
2018-07-04T18:33:19.651Z,30.36
2018-07-04T18:36:05.477Z,30.95
2018-07-04T18:38:52.369Z,30.93
2018-07-04T18:41:31.921Z,31.67
2018-07-04T18:44:10.738Z,31.89
2018-07-04T18:46:56.625Z,32.01
2018-07-04T18:49:36.008Z,32.36
2018-07-04T18:52:14.788Z,31.91
2018-07-04T18:57:49.810Z,31.19
2018-07-04T19:00:36.126Z,31.34
2018-07-04T19:03:25.636Z,31.15
2018-07-04T19:06:05.472Z,31.52
2018-07-04T19:08:44.506Z,31.71
2018-07-04T19:11:24.269Z,32.91
2018-07-04T19:14:03.926Z,33.14
2018-07-04T19:16:42.949Z,33.39
2018-07-04T19:19:29.650Z,34.57
2018-07-04T19:24:43.640Z,36.19
2018-07-04T19:27:22.834Z,36.33
2018-07-04T19:30:02.284Z,37.31
2018-07-04T19:32:41.276Z,37.19
2018-07-04T19:35:20.097Z,37.63
2018-07-04T19:37:59.105Z,38.20
2018-07-04T19:40:38.234Z,38.53
2018-07-04T19:43:17.173Z,38.90
2018-07-04T19:45:55.998Z,39.62
2018-07-04T19:48:35.797Z,39.89
2018-07-04T19:51:14.542Z,40.19
2018-07-04T19:53:54.257Z,40.12
2018-07-04T19:56:33.952Z,40.29
2018-07-04T19:59:12.774Z,40.22
2018-07-04T20:01:52.131Z,39.89
2018-07-04T20:04:30.781Z,39.69
2018-07-04T20:07:09.593Z,40.32
2018-07-04T20:09:48.573Z,40.34
2018-07-04T20:12:27.300Z,41.11
2018-07-04T20:15:05.939Z,41.22
2018-07-04T20:17:44.558Z,41.60
2018-07-04T20:20:23.457Z,41.96
2018-07-04T20:23:02.416Z,42.12
2018-07-04T20:25:41.167Z,42.16
2018-07-04T20:28:19.771Z,42.28
2018-07-04T20:30:58.548Z,42.74
2018-07-04T20:33:37.272Z,42.92
2018-07-04T20:36:15.994Z,42.99
2018-07-04T20:38:54.680Z,43.13
2018-07-04T20:41:33.279Z,43.80
2018-07-04T20:44:12.070Z,43.98
2018-07-04T20:46:50.850Z,44.53
2018-07-04T20:49:29.669Z,44.77
2018-07-04T20:52:08.436Z,45.19
2018-07-04T20:54:47.242Z,45.13
2018-07-04T20:57:25.856Z,44.84
2018-07-04T21:00:04.768Z,44.58
2018-07-04T21:02:43.781Z,44.40
2018-07-04T21:05:22.581Z,44.71
2018-07-04T21:08:01.078Z,45.07
2018-07-04T21:10:39.848Z,45.44
2018-07-04T21:13:18.570Z,45.44
2018-07-04T21:15:57.399Z,45.39
2018-07-04T21:18:36.052Z,45.02
2018-07-04T21:21:17.684Z,45.22
2018-07-04T21:23:56.238Z,45.58
2018-07-04T21:26:34.868Z,45.46
2018-07-04T21:29:13.808Z,45.37
2018-07-04T21:31:52.338Z,45.16
2018-07-04T21:34:30.923Z,45.47
2018-07-04T21:37:10.066Z,45.85
2018-07-04T21:39:49.759Z,44.81
2018-07-04T21:42:28.455Z,44.72
2018-07-04T21:45:07.521Z,44.97
2018-07-04T21:47:46.157Z,44.73
2018-07-04T21:50:24.792Z,44.23
2018-07-04T21:53:03.448Z,43.76
2018-07-04T21:55:42.256Z,43.73
2018-07-04T21:58:20.928Z,43.64
2018-07-04T22:00:59.839Z,43.62
2018-07-04T22:03:38.628Z,43.74
2018-07-04T22:06:17.221Z,43.57
2018-07-04T22:08:55.993Z,43.38
2018-07-04T22:11:34.557Z,43.28
2018-07-04T22:14:13.295Z,43.42
2018-07-04T22:16:52.080Z,43.63
2018-07-04T22:19:30.819Z,44.00
2018-07-04T22:22:09.328Z,44.17
2018-07-04T22:24:48.001Z,44.20
2018-07-04T22:27:26.488Z,43.90
2018-07-04T22:30:05.268Z,44.07
2018-07-04T22:32:43.835Z,44.33
2018-07-04T22:35:22.554Z,44.56
2018-07-04T22:38:02.132Z,44.77
2018-07-04T22:40:40.754Z,44.97
2018-07-04T22:43:19.450Z,45.06
2018-07-04T22:45:58.330Z,44.94
2018-07-04T22:48:36.846Z,44.70
2018-07-04T22:51:15.563Z,44.63
2018-07-04T22:53:54.340Z,44.50
2018-07-04T22:56:33.726Z,44.49
2018-07-04T22:59:13.050Z,44.21
2018-07-04T23:01:51.718Z,44.25
2018-07-04T23:04:30.511Z,44.08
2018-07-04T23:07:09.263Z,43.73
2018-07-04T23:09:48.120Z,43.72
2018-07-04T23:12:26.674Z,43.59
2018-07-04T23:15:05.444Z,43.58
2018-07-04T23:17:44.352Z,43.36
2018-07-04T23:20:23.222Z,43.61
2018-07-04T23:23:02.265Z,43.54
2018-07-04T23:25:40.990Z,43.31
2018-07-04T23:28:19.834Z,43.30
2018-07-04T23:30:59.883Z,43.33
2018-07-04T23:33:38.666Z,43.39
2018-07-04T23:36:18.062Z,43.45
2018-07-04T23:38:56.670Z,43.37
2018-07-04T23:41:35.383Z,43.25
2018-07-04T23:44:14.245Z,43.40
2018-07-04T23:46:53.678Z,43.30
2018-07-04T23:49:33.133Z,43.37
2018-07-04T23:52:11.914Z,43.42
2018-07-04T23:54:50.712Z,43.84
2018-07-04T23:57:29.560Z,43.68
